Terminal Aerodrome Forecast
Issued by NWS

Home | Current Version | Previous Version | Text Only | Print | Product List | Glossary On
Versions: 1 2 3 4 5 6 7 8 9 10 11 12 13 14 15 16 17
400
FTUS46 KMTR 061357 AAA
TAFMRY
TAF AMD
KMRY 061357Z 0614/0712 00000KT P6SM VCSH OVC045
     FM061700 26005KT P6SM VCSH BKN025
     FM062100 22006KT P6SM -RA BKN025
     FM070300 22005KT P6SM BKN020
     FM070900 VRB03KT P6SM BKN010=

USA.gov is the U.S. government's official web portal to all federal, state and local government web resources and services.